createdAt,value
2023-09-27T00:01:25.824Z,98138.09
2023-09-27T00:03:52.614Z,98136.75
2023-09-27T00:06:19.349Z,98127.25
2023-09-27T00:08:46.227Z,98132.38
2023-09-27T00:11:13.421Z,98129.66
2023-09-27T00:13:40.295Z,98123.69
2023-09-27T00:16:07.020Z,98120.69
2023-09-27T00:18:34.475Z,98126.94
2023-09-27T00:21:01.214Z,98116.63
2023-09-27T00:23:28.114Z,98114.16
2023-09-27T00:25:54.786Z,98122.84
2023-09-27T00:28:21.544Z,98118.78
2023-09-27T00:30:51.015Z,98113.88
2023-09-27T00:33:17.743Z,98119.84
2023-09-27T00:35:49.625Z,98110.34
2023-09-27T00:38:16.306Z,98107.34
2023-09-27T00:40:48.085Z,98111.72
2023-09-27T00:43:31.439Z,98113.06
2023-09-27T00:46:02.436Z,98104.63
2023-09-27T00:48:30.944Z,98107.34
2023-09-27T00:50:58.149Z,98110.06
2023-09-27T00:53:30.092Z,98104.88
2023-09-27T00:55:57.315Z,98112.19
2023-09-27T00:58:25.440Z,98108.13
2023-09-27T01:00:53.297Z,98105.66
2023-09-27T01:03:20.557Z,98108.38
2023-09-27T01:05:48.477Z,98114.63
2023-09-27T01:08:15.166Z,98103.22
2023-09-27T01:10:42.540Z,98105.38
2023-09-27T01:13:10.171Z,98115.94
2023-09-27T01:15:37.027Z,98099.09
2023-09-27T01:18:03.972Z,98120.25
2023-09-27T01:20:32.410Z,98112.41
2023-09-27T01:23:03.595Z,98122.41
2023-09-27T01:25:35.019Z,98102.88
2023-09-27T01:28:05.005Z,98114.25
2023-09-27T01:30:35.151Z,98107.44
2023-09-27T01:33:12.373Z,98103.66
2023-09-27T01:35:40.669Z,98103.94
2023-09-27T01:38:08.987Z,98103.88
2023-09-27T01:40:41.240Z,98107.38
2023-09-27T01:43:08.425Z,98107.66
2023-09-27T01:45:35.627Z,98112.25
2023-09-27T01:48:03.281Z,98111.47
2023-09-27T01:50:33.437Z,98106.03
2023-09-27T01:53:01.163Z,98098.97
2023-09-27T01:55:28.799Z,98098.97
2023-09-27T01:57:56.599Z,98091.38
2023-09-27T02:00:23.658Z,98100.34
2023-09-27T02:02:51.885Z,98111.16
2023-09-27T02:05:19.091Z,98100.84
2023-09-27T02:07:45.952Z,98097.28
2023-09-27T02:10:13.839Z,98097.28
2023-09-27T02:12:40.833Z,98097.81
2023-09-27T02:15:10.354Z,98100.00
2023-09-27T02:17:40.611Z,98101.06
2023-09-27T02:20:09.941Z,98089.97
2023-09-27T02:22:37.470Z,98091.81
2023-09-27T02:25:06.390Z,98098.28
2023-09-27T02:27:33.632Z,98102.34
2023-09-27T02:30:00.383Z,98103.19
2023-09-27T02:32:27.158Z,98098.84
2023-09-27T02:34:53.997Z,98098.28
2023-09-27T02:37:21.718Z,98102.63
2023-09-27T02:39:49.034Z,98084.69
2023-09-27T02:42:15.713Z,98098.81
2023-09-27T02:44:42.618Z,98103.38
2023-09-27T02:47:09.546Z,98096.59
2023-09-27T02:49:36.424Z,98100.94
2023-09-27T02:52:03.110Z,98097.38
2023-09-27T02:54:29.903Z,98093.81
2023-09-27T02:56:56.755Z,98092.97
2023-09-27T02:59:23.523Z,98105.22
2023-09-27T03:01:50.468Z,98098.63
2023-09-27T03:04:17.238Z,98101.34
2023-09-27T03:06:43.862Z,98108.97
2023-09-27T03:09:14.031Z,98103.56
2023-09-27T03:11:43.249Z,98108.16
2023-09-27T03:14:10.300Z,98097.34
2023-09-27T03:16:38.539Z,98094.59
2023-09-27T03:19:05.719Z,98107.81
2023-09-27T03:21:32.422Z,98100.22
2023-09-27T03:23:59.119Z,98097.00
2023-09-27T03:26:25.858Z,98099.41
2023-09-27T03:28:53.349Z,98090.19
2023-09-27T03:31:21.078Z,98081.72
2023-09-27T03:33:47.753Z,98102.00
2023-09-27T03:36:16.062Z,98096.59
2023-09-27T03:38:43.441Z,98097.09
2023-09-27T03:41:11.141Z,98098.72
2023-09-27T03:43:38.544Z,98101.16
2023-09-27T03:46:05.529Z,98096.81
2023-09-27T03:48:33.175Z,98097.34
2023-09-27T03:51:00.302Z,98092.19
2023-09-27T03:53:27.082Z,98093.50
2023-09-27T03:55:53.779Z,98097.81
2023-09-27T03:58:21.339Z,98101.84
2023-09-27T04:00:48.285Z,98099.13
2023-09-27T04:03:15.094Z,98096.19
2023-09-27T04:05:42.052Z,98095.63
2023-09-27T04:08:12.069Z,98085.84
2023-09-27T04:10:38.790Z,98089.91
2023-09-27T04:13:05.543Z,98092.63
2023-09-27T04:15:32.424Z,98109.41
2023-09-27T04:17:59.275Z,98104.00
2023-09-27T04:20:26.920Z,98107.50
2023-09-27T04:22:53.649Z,98105.88
2023-09-27T04:25:21.052Z,98123.41
2023-09-27T04:27:51.147Z,98118.03
2023-09-27T04:30:23.331Z,98121.81
2023-09-27T04:32:54.350Z,98113.38
2023-09-27T04:35:21.988Z,98112.81
2023-09-27T04:37:49.754Z,98106.59
2023-09-27T04:40:16.827Z,98114.91
2023-09-27T04:42:45.080Z,98109.00
2023-09-27T04:45:13.993Z,98110.06
2023-09-27T04:47:42.406Z,98119.88
2023-09-27T04:50:19.184Z,98107.19
2023-09-27T04:52:46.390Z,98119.41
2023-09-27T04:55:14.297Z,98123.75
2023-09-27T04:57:41.787Z,98114.13
2023-09-27T05:00:15.415Z,98114.94
2023-09-27T05:02:42.714Z,98117.97
2023-09-27T05:05:09.902Z,98122.94
2023-09-27T05:07:36.669Z,98097.38
2023-09-27T05:10:04.615Z,98113.16
2023-09-27T05:12:31.326Z,98131.63
2023-09-27T05:14:59.563Z,98115.34
2023-09-27T05:17:26.769Z,98130.56
2023-09-27T05:19:54.629Z,98128.38
2023-09-27T05:22:21.625Z,98118.41
2023-09-27T05:24:48.614Z,98124.16
2023-09-27T05:27:46.361Z,98123.38
2023-09-27T05:30:13.643Z,98134.47
2023-09-27T07:33:18.943Z,98141.81
2023-09-27T07:35:46.522Z,98142.41
2023-09-27T07:38:13.254Z,98141.00
2023-09-27T07:40:40.124Z,98152.75
2023-09-27T07:43:06.996Z,98141.34
2023-09-27T07:45:36.628Z,98151.78
2023-09-27T07:48:04.916Z,98146.84
2023-09-27T07:50:34.911Z,98151.84
2023-09-27T07:53:05.254Z,98151.31
2023-09-27T07:55:35.154Z,98153.25
2023-09-27T07:58:02.297Z,98154.97
2023-09-27T08:00:30.902Z,98145.66
2023-09-27T08:03:01.896Z,98152.66
2023-09-27T08:05:29.132Z,98135.88
2023-09-27T08:07:56.258Z,98144.16
2023-09-27T08:10:23.670Z,98129.81
2023-09-27T08:12:50.571Z,98134.88
2023-09-27T08:15:19.462Z,98129.56
2023-09-27T08:17:47.631Z,98125.84
2023-09-27T08:20:15.001Z,98123.09
2023-09-27T08:22:41.939Z,98129.25
2023-09-27T08:25:18.461Z,98125.97
2023-09-27T08:27:45.830Z,98127.59
2023-09-27T08:30:13.569Z,98102.50
2023-09-27T08:32:41.134Z,98114.22
2023-09-27T08:35:09.813Z,98114.28
2023-09-27T08:37:36.952Z,98111.13
2023-09-27T08:40:08.568Z,98113.22
2023-09-27T08:42:35.558Z,98106.59
2023-09-27T08:45:07.162Z,98116.94
2023-09-27T08:47:34.578Z,98105.13
2023-09-27T08:50:01.464Z,98108.50
2023-09-27T08:52:29.310Z,98110.41
2023-09-27T08:54:56.207Z,98098.69
2023-09-27T08:57:30.108Z,98092.78
2023-09-27T08:59:57.103Z,98098.41
2023-09-27T09:02:27.965Z,98097.47
2023-09-27T09:04:55.483Z,98087.44
2023-09-27T09:07:22.293Z,98080.41
2023-09-27T09:09:49.134Z,98085.31
2023-09-27T09:12:15.716Z,98082.25
2023-09-27T09:14:44.413Z,98079.88
2023-09-27T09:17:20.112Z,98072.94
2023-09-27T09:20:17.456Z,98067.13
2023-09-27T09:22:45.722Z,98058.75
2023-09-27T09:25:12.999Z,98072.94
2023-09-27T09:27:41.776Z,98058.28
2023-09-27T09:30:13.289Z,98060.78
2023-09-27T09:32:52.974Z,98056.38
2023-09-27T09:35:35.487Z,98055.09
2023-09-27T09:38:04.214Z,98059.00
2023-09-27T09:40:32.909Z,98052.53
2023-09-27T09:43:01.091Z,98048.00
2023-09-27T09:45:30.296Z,98055.00
2023-09-27T09:47:57.817Z,98052.94
2023-09-27T09:50:24.826Z,98054.81
2023-09-27T09:52:59.225Z,98043.16
2023-09-27T09:55:45.636Z,98051.22
2023-09-27T09:58:49.039Z,98037.88
2023-09-27T10:01:23.000Z,98034.69
2023-09-27T10:03:52.818Z,98036.41
2023-09-27T10:06:32.460Z,98039.31
2023-09-27T10:09:15.447Z,98034.28
2023-09-27T10:11:46.944Z,98027.84
2023-09-27T10:14:17.190Z,98021.00
2023-09-27T10:16:44.697Z,98028.22
2023-09-27T10:19:11.864Z,98028.34
2023-09-27T10:22:09.045Z,98019.31
2023-09-27T10:24:37.339Z,98019.00
2023-09-27T10:27:04.210Z,98016.34
2023-09-27T10:29:30.935Z,98022.03
2023-09-27T10:31:57.727Z,98018.16
2023-09-27T10:34:28.788Z,98010.66
2023-09-27T10:37:14.979Z,98003.47
2023-09-27T10:40:22.180Z,98002.00
2023-09-27T10:42:49.662Z,97995.31
2023-09-27T10:45:18.420Z,97994.47
2023-09-27T10:47:48.144Z,98001.28
2023-09-27T10:50:15.157Z,97989.91
2023-09-27T10:52:42.066Z,97990.38
2023-09-27T10:55:13.225Z,97989.34
2023-09-27T10:57:43.264Z,97985.97
2023-09-27T11:00:14.127Z,97981.34
2023-09-27T11:02:43.055Z,97981.25
2023-09-27T11:05:10.477Z,97970.69
2023-09-27T11:07:48.228Z,97969.22
2023-09-27T11:10:29.670Z,97968.50
2023-09-27T11:13:07.495Z,97967.84
2023-09-27T11:15:34.473Z,97965.19
2023-09-27T11:18:01.257Z,97960.88
2023-09-27T11:20:28.109Z,97967.00
2023-09-27T11:22:59.700Z,97958.78
2023-09-27T11:25:28.521Z,97947.72
2023-09-27T11:27:55.446Z,97951.00
2023-09-27T11:30:31.330Z,97957.09
2023-09-27T11:32:59.240Z,97946.81
2023-09-27T11:35:27.342Z,97954.09
2023-09-27T11:38:11.052Z,97951.00
2023-09-27T11:40:39.625Z,97947.44
2023-09-27T11:43:06.829Z,97949.88
2023-09-27T11:46:04.404Z,97949.88
2023-09-27T11:48:34.852Z,97949.84
2023-09-27T11:51:02.744Z,97938.63
2023-09-27T11:53:29.743Z,97940.16
2023-09-27T11:55:56.836Z,97945.00
2023-09-27T11:58:26.161Z,97937.44
2023-09-27T12:00:53.094Z,97935.53
2023-09-27T12:03:19.922Z,97926.03
2023-09-27T12:05:47.468Z,97914.09
2023-09-27T12:08:14.336Z,97920.50
2023-09-27T12:10:41.179Z,97917.75
2023-09-27T12:13:08.459Z,97920.56
2023-09-27T12:15:35.130Z,97911.06
2023-09-27T12:18:01.998Z,97915.03
2023-09-27T12:20:40.285Z,97907.13
2023-09-27T12:23:10.499Z,97910.75
2023-09-27T12:25:38.081Z,97914.41
2023-09-27T12:28:05.018Z,97897.69
2023-09-27T12:30:31.938Z,97906.13
2023-09-27T12:32:58.813Z,97896.22
2023-09-27T12:35:25.790Z,97894.22
2023-09-27T12:37:52.528Z,97891.44
2023-09-27T12:40:19.590Z,97890.28
2023-09-27T12:42:46.304Z,97899.44
2023-09-27T12:45:13.094Z,97891.53
2023-09-27T12:47:40.110Z,97887.56
2023-09-27T12:50:08.211Z,97891.94
2023-09-27T12:52:35.832Z,97893.13
2023-09-27T12:55:02.781Z,97888.28
2023-09-27T12:57:29.459Z,97890.22
2023-09-27T12:59:57.086Z,97890.19
2023-09-27T13:02:23.960Z,97885.66
2023-09-27T13:04:50.630Z,97883.19
2023-09-27T13:07:18.377Z,97888.63
2023-09-27T13:09:45.580Z,97887.19
2023-09-27T13:12:12.245Z,97881.88
2023-09-27T13:14:38.939Z,97882.97
2023-09-27T13:17:05.795Z,97870.50
2023-09-27T13:19:32.659Z,97876.06
2023-09-27T13:21:59.642Z,97874.50
2023-09-27T13:24:26.472Z,97866.56
2023-09-27T13:26:53.226Z,97873.00
2023-09-27T13:29:19.953Z,97867.78
2023-09-27T13:31:46.647Z,97861.81
2023-09-27T13:34:13.909Z,97876.09
2023-09-27T13:36:41.664Z,97868.47
2023-09-27T13:39:15.208Z,97869.63
2023-09-27T13:41:48.614Z,97863.59
2023-09-27T13:44:15.601Z,97870.03
2023-09-27T13:46:42.931Z,97866.44
2023-09-27T13:49:10.104Z,97871.91
2023-09-27T13:51:37.902Z,97863.88
2023-09-27T13:54:09.296Z,97859.00
2023-09-27T13:56:38.274Z,97860.56
2023-09-27T13:59:05.761Z,97852.50
2023-09-27T14:01:32.904Z,97863.59
2023-09-27T14:04:00.251Z,97856.31
2023-09-27T14:06:31.449Z,97853.16
2023-09-27T14:09:01.199Z,97852.66
2023-09-27T14:11:28.174Z,97851.91
2023-09-27T14:13:55.035Z,97845.94
2023-09-27T14:16:22.009Z,97854.59
2023-09-27T14:18:48.942Z,97859.31
2023-09-27T14:21:15.605Z,97860.03
2023-09-27T14:23:45.888Z,97852.84
2023-09-27T14:26:12.883Z,97849.97
2023-09-27T14:28:40.169Z,97843.97
2023-09-27T14:31:06.968Z,97857.78
2023-09-27T14:33:35.058Z,97854.09
2023-09-27T14:36:05.711Z,97853.19
2023-09-27T14:38:35.986Z,97850.72
2023-09-27T14:41:10.284Z,97851.41
2023-09-27T14:43:40.383Z,97855.31
2023-09-27T14:46:13.749Z,97849.56
2023-09-27T14:48:41.637Z,97864.63
2023-09-27T14:51:12.964Z,97859.75
2023-09-27T14:53:42.128Z,97867.97
2023-09-27T14:56:10.480Z,97855.56
2023-09-27T14:58:37.782Z,97852.66
2023-09-27T15:01:05.553Z,97851.34
2023-09-27T15:03:33.808Z,97859.94
2023-09-27T15:06:05.087Z,97857.50
2023-09-27T15:08:32.091Z,97849.50
2023-09-27T15:10:58.893Z,97858.09
2023-09-27T15:13:26.502Z,97855.47
2023-09-27T15:15:53.554Z,97866.13
2023-09-27T15:18:21.935Z,97860.09
2023-09-27T15:20:50.543Z,97870.25
2023-09-27T15:23:17.225Z,97868.47
2023-09-27T15:25:43.928Z,97866.75
2023-09-27T15:28:10.610Z,97872.16
2023-09-27T15:30:37.747Z,97879.59
2023-09-27T15:33:04.722Z,97878.22
2023-09-27T15:35:31.818Z,97880.91
2023-09-27T15:37:59.559Z,97882.25
2023-09-27T15:40:26.394Z,97886.47
2023-09-27T15:42:56.707Z,97875.97
2023-09-27T15:45:29.252Z,97884.19
2023-09-27T15:47:56.018Z,97878.50
2023-09-27T15:50:22.812Z,97880.75
2023-09-27T15:52:49.588Z,97883.81
2023-09-27T15:55:18.123Z,97883.97
2023-09-27T15:57:45.162Z,97885.25
2023-09-27T16:00:14.899Z,97888.91
2023-09-27T16:02:41.579Z,97885.78
2023-09-27T16:05:12.701Z,97879.00
2023-09-27T16:07:40.545Z,97875.06
2023-09-27T16:10:10.711Z,97888.16
2023-09-27T16:12:37.983Z,97888.63
2023-09-27T16:15:10.885Z,97887.53
2023-09-27T16:17:40.220Z,97892.75
2023-09-27T16:20:08.240Z,97898.25
2023-09-27T16:22:35.158Z,97891.41
2023-09-27T16:25:05.281Z,97898.22
2023-09-27T16:27:32.488Z,97901.66
2023-09-27T16:29:59.248Z,97903.38
2023-09-27T16:32:26.577Z,97907.88
2023-09-27T16:34:53.388Z,97906.75
2023-09-27T16:37:20.463Z,97910.31
2023-09-27T16:39:48.718Z,97912.38
2023-09-27T16:42:15.387Z,97924.66
2023-09-27T16:44:42.176Z,97916.25
2023-09-27T16:47:09.127Z,97925.06
2023-09-27T16:49:35.828Z,97920.78
2023-09-27T16:52:03.871Z,97935.00
2023-09-27T16:54:30.558Z,97935.88
2023-09-27T16:56:58.230Z,97939.53
2023-09-27T16:59:25.229Z,97930.41
2023-09-27T17:01:54.941Z,97929.03
2023-09-27T17:04:21.785Z,97937.16
2023-09-27T17:06:51.467Z,97932.69
2023-09-27T17:09:18.099Z,97941.25
2023-09-27T17:11:44.744Z,97944.13
2023-09-27T17:14:12.104Z,97937.97
2023-09-27T17:16:38.933Z,97935.56
2023-09-27T17:19:06.386Z,97941.16
2023-09-27T17:21:34.625Z,97928.56
2023-09-27T17:24:01.280Z,97938.81
2023-09-27T17:26:29.570Z,97941.69
2023-09-27T17:28:56.487Z,97947.00
2023-09-27T17:31:23.335Z,97948.59
2023-09-27T17:33:50.131Z,97953.63
2023-09-27T17:36:17.004Z,97951.09
2023-09-27T17:38:43.604Z,97954.94
2023-09-27T17:41:10.695Z,97949.44
2023-09-27T17:43:37.947Z,97955.31
2023-09-27T17:46:27.846Z,97959.38
2023-09-27T17:48:57.329Z,97949.63
2023-09-27T17:51:24.462Z,97965.13
2023-09-27T17:53:52.396Z,97959.94
2023-09-27T17:56:21.758Z,97957.88
2023-09-27T17:58:48.826Z,97956.66
2023-09-27T18:01:15.601Z,97959.91
2023-09-27T18:03:42.723Z,97959.78
2023-09-27T18:06:14.273Z,97958.28
2023-09-27T18:08:41.428Z,97956.03
2023-09-27T18:11:12.127Z,97945.47
2023-09-27T18:13:40.119Z,97953.72
2023-09-27T18:16:18.193Z,97943.38
2023-09-27T18:18:46.136Z,97952.63
2023-09-27T18:21:22.874Z,97955.88
2023-09-27T18:23:52.946Z,97960.31
2023-09-27T18:26:20.052Z,97957.47
2023-09-27T18:28:51.916Z,97960.91
2023-09-27T18:31:21.670Z,97963.50
2023-09-27T18:33:48.436Z,97965.78
2023-09-27T18:36:15.145Z,97966.44
2023-09-27T18:38:46.770Z,97961.50
2023-09-27T18:41:13.624Z,97960.72
2023-09-27T18:43:40.266Z,97962.75
2023-09-27T18:46:07.148Z,97959.91
2023-09-27T18:48:34.381Z,97960.63
2023-09-27T18:51:01.335Z,97959.38
2023-09-27T18:53:27.971Z,97951.19
2023-09-27T18:55:57.291Z,97961.88
2023-09-27T18:58:25.336Z,97962.91
2023-09-27T19:04:31.372Z,97961.41
2023-09-27T19:06:58.289Z,97972.22
2023-09-27T19:09:26.464Z,97969.16
2023-09-27T19:11:54.516Z,97964.25
2023-09-27T19:16:59.952Z,97970.28
2023-09-27T19:19:26.651Z,97949.09
2023-09-27T19:21:53.303Z,97956.66
2023-09-27T19:24:20.428Z,97947.88
2023-09-27T19:26:47.078Z,97946.81
2023-09-27T19:29:13.784Z,97961.13
2023-09-27T19:31:40.543Z,97967.50
2023-09-27T19:34:07.592Z,97957.41
2023-09-27T19:36:36.070Z,97960.38
2023-09-27T19:39:05.817Z,97959.31
2023-09-27T19:41:33.173Z,97965.84
2023-09-27T19:43:59.863Z,97955.38
2023-09-27T19:46:26.710Z,97953.88
2023-09-27T19:48:56.401Z,97962.19
2023-09-27T19:51:25.773Z,97950.34
2023-09-27T19:54:01.788Z,97955.44
2023-09-27T19:56:31.208Z,97956.72
2023-09-27T19:59:01.427Z,97961.91
2023-09-27T20:01:30.363Z,97964.34
2023-09-27T20:03:57.295Z,97952.00
2023-09-27T20:06:26.815Z,97952.81
2023-09-27T20:08:53.425Z,97946.72
2023-09-27T20:11:20.793Z,97950.44
2023-09-27T20:13:48.021Z,97944.16
2023-09-27T20:16:15.658Z,97954.06
2023-09-27T20:18:42.374Z,97944.41
2023-09-27T20:21:09.053Z,97952.13
2023-09-27T20:23:35.612Z,97939.94
2023-09-27T20:26:03.089Z,97945.19
2023-09-27T20:28:29.785Z,97941.13
2023-09-27T20:30:56.609Z,97944.75
2023-09-27T20:33:23.170Z,97947.53
2023-09-27T20:35:49.755Z,97938.94
2023-09-27T20:38:16.466Z,97941.25
2023-09-27T20:40:43.079Z,97943.59
2023-09-27T20:43:09.684Z,97945.31
2023-09-27T20:45:36.632Z,97942.81
2023-09-27T20:48:03.424Z,97957.59
2023-09-27T20:50:30.142Z,97952.28
2023-09-27T20:52:57.163Z,97955.91
2023-09-27T20:55:25.532Z,97949.41
2023-09-27T20:57:52.411Z,97952.72
2023-09-27T21:00:23.613Z,97932.75
2023-09-27T21:02:50.675Z,97948.75
2023-09-27T21:05:17.570Z,97945.50
2023-09-27T21:07:44.294Z,97949.94
2023-09-27T21:10:11.081Z,97926.16
2023-09-27T21:12:37.728Z,97948.09
2023-09-27T21:15:06.895Z,97945.72
2023-09-27T21:17:33.765Z,97946.59
2023-09-27T21:20:01.663Z,97949.59
2023-09-27T21:22:28.480Z,97951.34
2023-09-27T21:24:55.098Z,97938.66
2023-09-27T21:27:21.694Z,97956.91
2023-09-27T21:29:48.419Z,97953.72
2023-09-27T21:32:15.020Z,97946.19
2023-09-27T21:34:41.822Z,97943.53
2023-09-27T21:37:08.798Z,97944.09
2023-09-27T21:39:36.635Z,97942.53
2023-09-27T21:42:03.263Z,97951.56
2023-09-27T21:44:31.387Z,97943.47
2023-09-27T21:46:58.016Z,97941.06
2023-09-27T21:49:25.739Z,97947.63
2023-09-27T21:51:52.726Z,97943.31
2023-09-27T21:54:19.910Z,97937.06
2023-09-27T21:56:46.638Z,97947.72
2023-09-27T21:59:13.361Z,97941.22
2023-09-27T22:01:40.153Z,97934.19
2023-09-27T22:04:07.517Z,97943.19
2023-09-27T22:06:34.219Z,97947.34
2023-09-27T22:09:00.802Z,97943.25
2023-09-27T22:11:27.418Z,97929.78
2023-09-27T22:13:55.821Z,97936.00
2023-09-27T22:16:23.017Z,97938.47
2023-09-27T22:18:50.388Z,97938.75
2023-09-27T22:21:28.320Z,97938.78
2023-09-27T22:23:57.478Z,97943.22
2023-09-27T22:26:26.242Z,97941.56
2023-09-27T22:28:56.842Z,97941.66
2023-09-27T22:31:32.393Z,97930.78
2023-09-27T22:34:11.298Z,97929.19
2023-09-27T22:36:47.861Z,97924.56
2023-09-27T22:39:17.649Z,97935.72
2023-09-27T22:41:46.714Z,97927.81
2023-09-27T22:44:23.736Z,97931.34
2023-09-27T22:46:54.676Z,97927.03
2023-09-27T22:49:25.041Z,97928.16
2023-09-27T22:51:52.625Z,97929.78
2023-09-27T22:54:21.733Z,97931.72
2023-09-27T22:56:50.760Z,97935.78
2023-09-27T22:59:18.481Z,97936.13
2023-09-27T23:01:47.558Z,97931.75
2023-09-27T23:04:17.233Z,97930.69
2023-09-27T23:07:01.274Z,97937.78
2023-09-27T23:09:35.343Z,97934.81
2023-09-27T23:12:18.672Z,97931.56
2023-09-27T23:15:04.724Z,97930.47
2023-09-27T23:17:44.539Z,97924.00
2023-09-27T23:20:12.683Z,97930.25
2023-09-27T23:22:58.097Z,97930.53
2023-09-27T23:25:53.111Z,97926.75
2023-09-27T23:28:28.608Z,97928.63
2023-09-27T23:30:56.667Z,97922.94
2023-09-27T23:33:23.515Z,97929.75
2023-09-27T23:35:51.336Z,97925.72
2023-09-27T23:38:37.602Z,97941.19
2023-09-27T23:41:04.305Z,97921.13
2023-09-27T23:43:41.274Z,97921.16
2023-09-27T23:46:15.788Z,97924.69
2023-09-27T23:48:43.412Z,97913.28
2023-09-27T23:51:10.073Z,97917.63
2023-09-27T23:53:37.304Z,97926.31
2023-09-27T23:56:07.769Z,97921.44
2023-09-27T23:58:35.556Z,97919.56
